sensor_id;sensor_type;location;lat;lon;timestamp;P1;durP1;ratioP1;P2;durP2;ratioP2
71164;SDS011;58859;55.132;-1.586;2023-05-31T00:01:14;1.97;;;1.40;;
71164;SDS011;58859;55.132;-1.586;2023-05-31T00:03:39;3.10;;;1.90;;
71164;SDS011;58859;55.132;-1.586;2023-05-31T00:06:11;2.03;;;1.80;;
71164;SDS011;58859;55.132;-1.586;2023-05-31T00:08:40;3.38;;;2.08;;
71164;SDS011;58859;55.132;-1.586;2023-05-31T00:11:06;4.05;;;2.00;;
71164;SDS011;58859;55.132;-1.586;2023-05-31T00:13:32;3.63;;;2.07;;
71164;SDS011;58859;55.132;-1.586;2023-05-31T00:15:57;3.42;;;1.88;;
71164;SDS011;58859;55.132;-1.586;2023-05-31T00:18:23;3.17;;;2.10;;
71164;SDS011;58859;55.132;-1.586;2023-05-31T00:20:49;3.35;;;2.00;;
71164;SDS011;58859;55.132;-1.586;2023-05-31T00:23:15;4.78;;;2.38;;
71164;SDS011;58859;55.132;-1.586;2023-05-31T00:25:40;4.18;;;2.13;;
71164;SDS011;58859;55.132;-1.586;2023-05-31T00:28:06;2.80;;;2.30;;
71164;SDS011;58859;55.132;-1.586;2023-05-31T00:30:31;6.83;;;2.60;;
71164;SDS011;58859;55.132;-1.586;2023-05-31T00:32:57;3.03;;;2.00;;
71164;SDS011;58859;55.132;-1.586;2023-05-31T00:35:22;4.68;;;1.88;;
71164;SDS011;58859;55.132;-1.586;2023-05-31T00:37:47;6.97;;;2.47;;
71164;SDS011;58859;55.132;-1.586;2023-05-31T00:40:13;3.87;;;2.60;;
71164;SDS011;58859;55.132;-1.586;2023-05-31T00:42:38;3.63;;;2.30;;
71164;SDS011;58859;55.132;-1.586;2023-05-31T00:45:06;3.97;;;2.42;;
71164;SDS011;58859;55.132;-1.586;2023-05-31T00:47:32;2.95;;;2.65;;
71164;SDS011;58859;55.132;-1.586;2023-05-31T00:49:59;2.75;;;2.55;;
71164;SDS011;58859;55.132;-1.586;2023-05-31T00:52:25;4.13;;;2.70;;
71164;SDS011;58859;55.132;-1.586;2023-05-31T00:54:52;7.35;;;2.70;;
71164;SDS011;58859;55.132;-1.586;2023-05-31T00:57:17;2.90;;;2.60;;
71164;SDS011;58859;55.132;-1.586;2023-05-31T00:59:43;5.10;;;2.58;;
71164;SDS011;58859;55.132;-1.586;2023-05-31T01:02:09;3.60;;;2.43;;
71164;SDS011;58859;55.132;-1.586;2023-05-31T01:04:39;5.53;;;3.15;;
71164;SDS011;58859;55.132;-1.586;2023-05-31T01:07:04;3.33;;;2.67;;
71164;SDS011;58859;55.132;-1.586;2023-05-31T01:09:30;5.68;;;3.10;;
71164;SDS011;58859;55.132;-1.586;2023-05-31T01:14:59;3.72;;;2.65;;
71164;SDS011;58859;55.132;-1.586;2023-05-31T01:17:35;3.13;;;2.70;;
71164;SDS011;58859;55.132;-1.586;2023-05-31T01:20:26;5.15;;;2.90;;
71164;SDS011;58859;55.132;-1.586;2023-05-31T01:28:38;6.47;;;3.08;;
71164;SDS011;58859;55.132;-1.586;2023-05-31T01:31:07;4.13;;;2.77;;
71164;SDS011;58859;55.132;-1.586;2023-05-31T01:33:36;3.75;;;2.80;;
71164;SDS011;58859;55.132;-1.586;2023-05-31T01:36:02;6.93;;;3.10;;
71164;SDS011;58859;55.132;-1.586;2023-05-31T01:38:28;3.17;;;2.70;;
71164;SDS011;58859;55.132;-1.586;2023-05-31T01:40:54;3.08;;;2.53;;
71164;SDS011;58859;55.132;-1.586;2023-05-31T01:43:21;3.92;;;2.63;;
71164;SDS011;58859;55.132;-1.586;2023-05-31T01:45:48;3.40;;;2.97;;
71164;SDS011;58859;55.132;-1.586;2023-05-31T01:48:13;6.07;;;3.08;;
71164;SDS011;58859;55.132;-1.586;2023-05-31T01:50:39;5.15;;;3.00;;
71164;SDS011;58859;55.132;-1.586;2023-05-31T01:53:06;4.65;;;2.75;;
71164;SDS011;58859;55.132;-1.586;2023-05-31T01:55:32;5.70;;;3.22;;
71164;SDS011;58859;55.132;-1.586;2023-05-31T01:57:58;4.87;;;3.13;;
71164;SDS011;58859;55.132;-1.586;2023-05-31T02:00:25;5.07;;;2.70;;
71164;SDS011;58859;55.132;-1.586;2023-05-31T02:02:51;5.80;;;3.08;;
71164;SDS011;58859;55.132;-1.586;2023-05-31T02:05:17;5.55;;;3.00;;
71164;SDS011;58859;55.132;-1.586;2023-05-31T02:07:44;4.63;;;3.07;;
71164;SDS011;58859;55.132;-1.586;2023-05-31T02:10:11;3.42;;;3.05;;
71164;SDS011;58859;55.132;-1.586;2023-05-31T02:12:37;4.10;;;2.88;;
71164;SDS011;58859;55.132;-1.586;2023-05-31T02:15:03;4.90;;;2.88;;
71164;SDS011;58859;55.132;-1.586;2023-05-31T02:17:29;3.93;;;2.93;;
71164;SDS011;58859;55.132;-1.586;2023-05-31T02:19:58;4.22;;;3.00;;
71164;SDS011;58859;55.132;-1.586;2023-05-31T02:22:24;3.72;;;2.60;;
71164;SDS011;58859;55.132;-1.586;2023-05-31T02:24:49;3.83;;;2.73;;
71164;SDS011;58859;55.132;-1.586;2023-05-31T02:27:15;4.65;;;3.42;;
71164;SDS011;58859;55.132;-1.586;2023-05-31T02:29:40;4.97;;;3.10;;
71164;SDS011;58859;55.132;-1.586;2023-05-31T02:32:06;3.40;;;2.63;;
71164;SDS011;58859;55.132;-1.586;2023-05-31T02:34:32;5.18;;;3.38;;
71164;SDS011;58859;55.132;-1.586;2023-05-31T02:36:58;4.90;;;3.17;;
71164;SDS011;58859;55.132;-1.586;2023-05-31T02:39:25;4.87;;;3.27;;
71164;SDS011;58859;55.132;-1.586;2023-05-31T02:41:50;4.40;;;2.53;;
71164;SDS011;58859;55.132;-1.586;2023-05-31T02:44:16;6.43;;;3.50;;
71164;SDS011;58859;55.132;-1.586;2023-05-31T02:46:41;5.07;;;2.97;;
71164;SDS011;58859;55.132;-1.586;2023-05-31T02:49:07;5.07;;;3.05;;
71164;SDS011;58859;55.132;-1.586;2023-05-31T02:51:32;4.07;;;2.73;;
71164;SDS011;58859;55.132;-1.586;2023-05-31T02:53:58;5.13;;;3.30;;
71164;SDS011;58859;55.132;-1.586;2023-05-31T02:56:23;4.18;;;3.25;;
71164;SDS011;58859;55.132;-1.586;2023-05-31T02:58:49;5.03;;;3.43;;
71164;SDS011;58859;55.132;-1.586;2023-05-31T03:01:15;3.42;;;2.53;;
71164;SDS011;58859;55.132;-1.586;2023-05-31T03:03:41;3.97;;;2.90;;
71164;SDS011;58859;55.132;-1.586;2023-05-31T03:06:06;4.67;;;2.50;;
71164;SDS011;58859;55.132;-1.586;2023-05-31T03:08:32;5.13;;;2.83;;
71164;SDS011;58859;55.132;-1.586;2023-05-31T03:10:57;4.00;;;2.70;;
71164;SDS011;58859;55.132;-1.586;2023-05-31T03:13:22;4.63;;;3.00;;
71164;SDS011;58859;55.132;-1.586;2023-05-31T03:15:48;3.40;;;2.40;;
71164;SDS011;58859;55.132;-1.586;2023-05-31T03:18:13;3.37;;;2.20;;
71164;SDS011;58859;55.132;-1.586;2023-05-31T03:20:39;4.73;;;2.70;;
71164;SDS011;58859;55.132;-1.586;2023-05-31T03:23:04;5.55;;;2.80;;
71164;SDS011;58859;55.132;-1.586;2023-05-31T03:25:31;5.80;;;3.03;;
71164;SDS011;58859;55.132;-1.586;2023-05-31T03:27:57;3.45;;;2.60;;
71164;SDS011;58859;55.132;-1.586;2023-05-31T03:30:22;3.77;;;3.10;;
71164;SDS011;58859;55.132;-1.586;2023-05-31T03:32:48;3.93;;;2.53;;
71164;SDS011;58859;55.132;-1.586;2023-05-31T03:35:13;4.80;;;3.00;;
71164;SDS011;58859;55.132;-1.586;2023-05-31T03:37:39;4.57;;;2.77;;
71164;SDS011;58859;55.132;-1.586;2023-05-31T03:40:04;5.37;;;3.07;;
71164;SDS011;58859;55.132;-1.586;2023-05-31T03:42:30;3.17;;;2.30;;
71164;SDS011;58859;55.132;-1.586;2023-05-31T03:44:56;3.45;;;2.70;;
71164;SDS011;58859;55.132;-1.586;2023-05-31T03:47:22;3.63;;;2.70;;
71164;SDS011;58859;55.132;-1.586;2023-05-31T03:49:47;3.40;;;2.60;;
71164;SDS011;58859;55.132;-1.586;2023-05-31T03:52:12;3.30;;;2.60;;
71164;SDS011;58859;55.132;-1.586;2023-05-31T03:54:39;5.82;;;2.40;;
71164;SDS011;58859;55.132;-1.586;2023-05-31T03:57:04;4.45;;;2.25;;
71164;SDS011;58859;55.132;-1.586;2023-05-31T03:59:30;4.10;;;2.47;;
71164;SDS011;58859;55.132;-1.586;2023-05-31T04:01:56;4.03;;;2.67;;
71164;SDS011;58859;55.132;-1.586;2023-05-31T04:04:21;5.60;;;2.90;;
71164;SDS011;58859;55.132;-1.586;2023-05-31T04:06:47;4.63;;;2.40;;
71164;SDS011;58859;55.132;-1.586;2023-05-31T04:09:12;4.33;;;3.07;;
71164;SDS011;58859;55.132;-1.586;2023-05-31T04:11:38;3.53;;;2.70;;
71164;SDS011;58859;55.132;-1.586;2023-05-31T04:14:03;3.15;;;2.33;;
71164;SDS011;58859;55.132;-1.586;2023-05-31T04:16:28;4.77;;;2.67;;
71164;SDS011;58859;55.132;-1.586;2023-05-31T04:18:54;5.57;;;2.80;;
71164;SDS011;58859;55.132;-1.586;2023-05-31T04:21:19;3.70;;;2.92;;
71164;SDS011;58859;55.132;-1.586;2023-05-31T04:23:45;3.55;;;2.85;;
71164;SDS011;58859;55.132;-1.586;2023-05-31T04:26:11;5.85;;;2.88;;
71164;SDS011;58859;55.132;-1.586;2023-05-31T04:28:41;3.35;;;2.60;;
71164;SDS011;58859;55.132;-1.586;2023-05-31T04:31:07;5.05;;;2.85;;
71164;SDS011;58859;55.132;-1.586;2023-05-31T04:33:33;3.80;;;2.60;;
71164;SDS011;58859;55.132;-1.586;2023-05-31T04:36:00;4.32;;;2.55;;
71164;SDS011;58859;55.132;-1.586;2023-05-31T04:38:28;5.15;;;2.25;;
71164;SDS011;58859;55.132;-1.586;2023-05-31T04:40:55;3.58;;;2.42;;
71164;SDS011;58859;55.132;-1.586;2023-05-31T04:43:22;4.45;;;2.80;;
71164;SDS011;58859;55.132;-1.586;2023-05-31T04:45:50;3.37;;;2.17;;
71164;SDS011;58859;55.132;-1.586;2023-05-31T04:48:16;5.22;;;2.42;;
71164;SDS011;58859;55.132;-1.586;2023-05-31T04:50:42;3.70;;;2.50;;
71164;SDS011;58859;55.132;-1.586;2023-05-31T04:53:08;4.82;;;2.35;;
71164;SDS011;58859;55.132;-1.586;2023-05-31T04:55:34;3.88;;;2.50;;
71164;SDS011;58859;55.132;-1.586;2023-05-31T04:58:00;4.70;;;2.50;;
71164;SDS011;58859;55.132;-1.586;2023-05-31T05:00:25;3.03;;;2.33;;
71164;SDS011;58859;55.132;-1.586;2023-05-31T05:02:51;3.20;;;2.08;;
71164;SDS011;58859;55.132;-1.586;2023-05-31T05:05:16;5.10;;;2.05;;
71164;SDS011;58859;55.132;-1.586;2023-05-31T05:07:42;2.13;;;1.90;;
71164;SDS011;58859;55.132;-1.586;2023-05-31T05:10:08;4.13;;;2.13;;
71164;SDS011;58859;55.132;-1.586;2023-05-31T05:12:33;3.17;;;2.05;;
71164;SDS011;58859;55.132;-1.586;2023-05-31T05:14:59;3.15;;;2.08;;
71164;SDS011;58859;55.132;-1.586;2023-05-31T05:17:24;7.07;;;2.33;;
71164;SDS011;58859;55.132;-1.586;2023-05-31T05:19:50;3.03;;;2.20;;
71164;SDS011;58859;55.132;-1.586;2023-05-31T05:22:15;3.55;;;1.88;;
71164;SDS011;58859;55.132;-1.586;2023-05-31T05:24:41;1.93;;;1.73;;
71164;SDS011;58859;55.132;-1.586;2023-05-31T05:27:06;2.00;;;1.50;;
71164;SDS011;58859;55.132;-1.586;2023-05-31T05:29:32;2.05;;;1.63;;
71164;SDS011;58859;55.132;-1.586;2023-05-31T05:31:58;3.17;;;1.67;;
71164;SDS011;58859;55.132;-1.586;2023-05-31T05:34:24;1.65;;;1.45;;
71164;SDS011;58859;55.132;-1.586;2023-05-31T05:36:49;3.40;;;1.90;;
71164;SDS011;58859;55.132;-1.586;2023-05-31T05:39:14;4.23;;;1.43;;
71164;SDS011;58859;55.132;-1.586;2023-05-31T05:41:40;2.50;;;1.60;;
71164;SDS011;58859;55.132;-1.586;2023-05-31T05:44:05;2.10;;;1.40;;
71164;SDS011;58859;55.132;-1.586;2023-05-31T05:46:31;1.60;;;1.10;;
71164;SDS011;58859;55.132;-1.586;2023-05-31T05:48:56;2.33;;;1.43;;
71164;SDS011;58859;55.132;-1.586;2023-05-31T05:51:22;1.10;;;1.00;;
71164;SDS011;58859;55.132;-1.586;2023-05-31T05:53:47;1.58;;;1.48;;
71164;SDS011;58859;55.132;-1.586;2023-05-31T05:56:13;1.90;;;1.30;;
71164;SDS011;58859;55.132;-1.586;2023-05-31T05:58:44;3.13;;;1.83;;
71164;SDS011;58859;55.132;-1.586;2023-05-31T06:01:11;2.47;;;1.60;;
71164;SDS011;58859;55.132;-1.586;2023-05-31T06:03:38;3.03;;;1.75;;
71164;SDS011;58859;55.132;-1.586;2023-05-31T06:06:04;1.95;;;1.75;;
71164;SDS011;58859;55.132;-1.586;2023-05-31T06:08:29;1.92;;;1.55;;
71164;SDS011;58859;55.132;-1.586;2023-05-31T06:10:55;1.60;;;1.50;;
71164;SDS011;58859;55.132;-1.586;2023-05-31T06:13:20;1.63;;;1.53;;
71164;SDS011;58859;55.132;-1.586;2023-05-31T06:15:45;1.47;;;1.23;;
71164;SDS011;58859;55.132;-1.586;2023-05-31T06:18:11;2.77;;;2.20;;
71164;SDS011;58859;55.132;-1.586;2023-05-31T06:20:36;4.53;;;2.60;;
71164;SDS011;58859;55.132;-1.586;2023-05-31T06:23:02;2.27;;;1.53;;
71164;SDS011;58859;55.132;-1.586;2023-05-31T06:25:27;1.83;;;1.17;;
71164;SDS011;58859;55.132;-1.586;2023-05-31T06:27:53;3.33;;;1.20;;
71164;SDS011;58859;55.132;-1.586;2023-05-31T06:30:22;1.63;;;1.40;;
71164;SDS011;58859;55.132;-1.586;2023-05-31T06:32:47;2.80;;;1.20;;
71164;SDS011;58859;55.132;-1.586;2023-05-31T06:35:13;1.80;;;1.50;;
71164;SDS011;58859;55.132;-1.586;2023-05-31T06:37:38;1.67;;;1.50;;
71164;SDS011;58859;55.132;-1.586;2023-05-31T06:40:04;2.00;;;1.60;;
71164;SDS011;58859;55.132;-1.586;2023-05-31T06:42:32;3.50;;;1.45;;
71164;SDS011;58859;55.132;-1.586;2023-05-31T06:44:57;5.57;;;1.58;;
71164;SDS011;58859;55.132;-1.586;2023-05-31T06:47:22;1.67;;;1.50;;
71164;SDS011;58859;55.132;-1.586;2023-05-31T06:49:48;3.50;;;1.73;;
71164;SDS011;58859;55.132;-1.586;2023-05-31T06:52:14;2.55;;;1.48;;
71164;SDS011;58859;55.132;-1.586;2023-05-31T06:54:40;2.63;;;1.47;;
71164;SDS011;58859;55.132;-1.586;2023-05-31T06:57:07;5.07;;;1.60;;
71164;SDS011;58859;55.132;-1.586;2023-05-31T06:59:33;2.17;;;1.57;;
71164;SDS011;58859;55.132;-1.586;2023-05-31T07:01:58;2.87;;;1.73;;
71164;SDS011;58859;55.132;-1.586;2023-05-31T07:04:24;1.80;;;1.47;;
71164;SDS011;58859;55.132;-1.586;2023-05-31T07:06:49;2.97;;;2.00;;
71164;SDS011;58859;55.132;-1.586;2023-05-31T07:09:15;3.97;;;2.20;;
71164;SDS011;58859;55.132;-1.586;2023-05-31T07:11:41;2.55;;;2.03;;
71164;SDS011;58859;55.132;-1.586;2023-05-31T07:14:08;6.50;;;2.08;;
71164;SDS011;58859;55.132;-1.586;2023-05-31T07:16:34;2.22;;;1.45;;
71164;SDS011;58859;55.132;-1.586;2023-05-31T07:19:00;2.72;;;1.75;;
71164;SDS011;58859;55.132;-1.586;2023-05-31T07:21:26;4.00;;;1.75;;
71164;SDS011;58859;55.132;-1.586;2023-05-31T07:23:52;1.63;;;1.53;;
71164;SDS011;58859;55.132;-1.586;2023-05-31T07:26:17;3.57;;;1.80;;
71164;SDS011;58859;55.132;-1.586;2023-05-31T07:28:43;1.48;;;1.38;;
71164;SDS011;58859;55.132;-1.586;2023-05-31T07:31:10;2.35;;;1.63;;
71164;SDS011;58859;55.132;-1.586;2023-05-31T07:33:38;2.72;;;1.80;;
71164;SDS011;58859;55.132;-1.586;2023-05-31T07:36:03;3.03;;;1.77;;
71164;SDS011;58859;55.132;-1.586;2023-05-31T07:38:29;1.92;;;1.67;;
71164;SDS011;58859;55.132;-1.586;2023-05-31T07:40:55;2.88;;;1.48;;
71164;SDS011;58859;55.132;-1.586;2023-05-31T07:43:21;3.50;;;1.53;;
71164;SDS011;58859;55.132;-1.586;2023-05-31T07:45:48;3.17;;;1.90;;
71164;SDS011;58859;55.132;-1.586;2023-05-31T07:48:15;4.13;;;1.70;;
71164;SDS011;58859;55.132;-1.586;2023-05-31T07:50:44;2.33;;;1.65;;
71164;SDS011;58859;55.132;-1.586;2023-05-31T07:53:10;3.97;;;1.73;;
71164;SDS011;58859;55.132;-1.586;2023-05-31T07:55:36;4.30;;;1.90;;
71164;SDS011;58859;55.132;-1.586;2023-05-31T07:58:02;4.18;;;2.30;;
71164;SDS011;58859;55.132;-1.586;2023-05-31T08:00:28;3.05;;;2.05;;
71164;SDS011;58859;55.132;-1.586;2023-05-31T08:02:54;2.85;;;2.10;;
71164;SDS011;58859;55.132;-1.586;2023-05-31T08:05:19;3.23;;;2.00;;
71164;SDS011;58859;55.132;-1.586;2023-05-31T08:07:46;2.53;;;1.90;;
71164;SDS011;58859;55.132;-1.586;2023-05-31T08:10:12;4.53;;;1.75;;
71164;SDS011;58859;55.132;-1.586;2023-05-31T08:12:38;3.97;;;2.00;;
71164;SDS011;58859;55.132;-1.586;2023-05-31T08:15:06;3.67;;;1.60;;
71164;SDS011;58859;55.132;-1.586;2023-05-31T08:17:32;3.03;;;2.22;;
71164;SDS011;58859;55.132;-1.586;2023-05-31T08:19:57;5.33;;;2.43;;
71164;SDS011;58859;55.132;-1.586;2023-05-31T08:22:22;1.60;;;1.50;;
71164;SDS011;58859;55.132;-1.586;2023-05-31T08:24:48;2.13;;;1.93;;
71164;SDS011;58859;55.132;-1.586;2023-05-31T08:27:14;3.53;;;2.03;;
71164;SDS011;58859;55.132;-1.586;2023-05-31T08:29:40;3.40;;;1.70;;
71164;SDS011;58859;55.132;-1.586;2023-05-31T08:32:05;2.92;;;1.70;;
71164;SDS011;58859;55.132;-1.586;2023-05-31T08:34:31;2.03;;;1.70;;
71164;SDS011;58859;55.132;-1.586;2023-05-31T08:36:56;3.13;;;1.87;;
71164;SDS011;58859;55.132;-1.586;2023-05-31T08:39:22;2.80;;;1.58;;
71164;SDS011;58859;55.132;-1.586;2023-05-31T08:41:52;2.20;;;1.90;;
71164;SDS011;58859;55.132;-1.586;2023-05-31T08:44:25;2.67;;;1.63;;
71164;SDS011;58859;55.132;-1.586;2023-05-31T08:46:51;2.00;;;1.80;;
71164;SDS011;58859;55.132;-1.586;2023-05-31T08:49:17;1.87;;;1.60;;
71164;SDS011;58859;55.132;-1.586;2023-05-31T08:51:44;2.20;;;2.00;;
71164;SDS011;58859;55.132;-1.586;2023-05-31T08:54:13;4.10;;;1.55;;
71164;SDS011;58859;55.132;-1.586;2023-05-31T08:56:39;3.87;;;1.70;;
71164;SDS011;58859;55.132;-1.586;2023-05-31T08:59:06;2.92;;;1.48;;
71164;SDS011;58859;55.132;-1.586;2023-05-31T09:01:34;2.20;;;1.20;;
71164;SDS011;58859;55.132;-1.586;2023-05-31T09:04:02;1.55;;;1.08;;
71164;SDS011;58859;55.132;-1.586;2023-05-31T09:06:30;1.60;;;1.37;;
71164;SDS011;58859;55.132;-1.586;2023-05-31T09:08:56;3.00;;;1.70;;
71164;SDS011;58859;55.132;-1.586;2023-05-31T09:11:22;1.60;;;1.50;;
71164;SDS011;58859;55.132;-1.586;2023-05-31T09:13:47;4.57;;;2.03;;
71164;SDS011;58859;55.132;-1.586;2023-05-31T09:16:13;5.57;;;2.00;;
71164;SDS011;58859;55.132;-1.586;2023-05-31T09:18:39;1.83;;;1.53;;
71164;SDS011;58859;55.132;-1.586;2023-05-31T09:21:10;1.70;;;1.58;;
71164;SDS011;58859;55.132;-1.586;2023-05-31T09:23:38;4.43;;;1.45;;
71164;SDS011;58859;55.132;-1.586;2023-05-31T09:26:17;1.40;;;1.30;;
71164;SDS011;58859;55.132;-1.586;2023-05-31T09:28:47;3.20;;;2.08;;
71164;SDS011;58859;55.132;-1.586;2023-05-31T09:31:14;1.77;;;1.23;;
71164;SDS011;58859;55.132;-1.586;2023-05-31T09:33:41;2.67;;;1.65;;
71164;SDS011;58859;55.132;-1.586;2023-05-31T09:36:07;2.25;;;1.40;;
71164;SDS011;58859;55.132;-1.586;2023-05-31T09:38:34;3.10;;;1.40;;
71164;SDS011;58859;55.132;-1.586;2023-05-31T09:43:46;2.08;;;1.35;;
71164;SDS011;58859;55.132;-1.586;2023-05-31T09:46:20;3.50;;;1.40;;
71164;SDS011;58859;55.132;-1.586;2023-05-31T09:49:07;2.75;;;1.55;;
71164;SDS011;58859;55.132;-1.586;2023-05-31T09:51:34;5.22;;;2.10;;
71164;SDS011;58859;55.132;-1.586;2023-05-31T09:54:00;2.90;;;2.00;;
71164;SDS011;58859;55.132;-1.586;2023-05-31T09:56:35;2.90;;;1.90;;
71164;SDS011;58859;55.132;-1.586;2023-05-31T09:59:01;1.75;;;1.38;;
71164;SDS011;58859;55.132;-1.586;2023-05-31T10:01:28;2.78;;;1.60;;
71164;SDS011;58859;55.132;-1.586;2023-05-31T10:03:54;2.57;;;1.47;;
71164;SDS011;58859;55.132;-1.586;2023-05-31T10:06:20;2.90;;;1.40;;
71164;SDS011;58859;55.132;-1.586;2023-05-31T10:08:46;3.00;;;1.83;;
71164;SDS011;58859;55.132;-1.586;2023-05-31T10:11:14;2.40;;;1.50;;
71164;SDS011;58859;55.132;-1.586;2023-05-31T10:13:42;1.98;;;1.70;;
71164;SDS011;58859;55.132;-1.586;2023-05-31T10:16:09;1.83;;;1.05;;
71164;SDS011;58859;55.132;-1.586;2023-05-31T10:18:36;2.05;;;1.58;;
71164;SDS011;58859;55.132;-1.586;2023-05-31T10:21:10;6.23;;;1.60;;
71164;SDS011;58859;55.132;-1.586;2023-05-31T10:23:48;2.25;;;1.70;;
71164;SDS011;58859;55.132;-1.586;2023-05-31T10:26:20;2.67;;;1.80;;
71164;SDS011;58859;55.132;-1.586;2023-05-31T10:28:51;4.45;;;2.08;;
71164;SDS011;58859;55.132;-1.586;2023-05-31T10:31:25;2.65;;;1.88;;
71164;SDS011;58859;55.132;-1.586;2023-05-31T10:34:00;4.23;;;2.10;;
71164;SDS011;58859;55.132;-1.586;2023-05-31T10:36:36;3.67;;;1.60;;
71164;SDS011;58859;55.132;-1.586;2023-05-31T10:39:08;3.97;;;2.10;;
71164;SDS011;58859;55.132;-1.586;2023-05-31T10:41:42;2.83;;;2.50;;
71164;SDS011;58859;55.132;-1.586;2023-05-31T10:44:17;2.83;;;2.17;;
71164;SDS011;58859;55.132;-1.586;2023-05-31T10:46:48;4.45;;;2.13;;
71164;SDS011;58859;55.132;-1.586;2023-05-31T10:49:22;4.07;;;2.72;;
71164;SDS011;58859;55.132;-1.586;2023-05-31T10:51:49;3.50;;;2.35;;
71164;SDS011;58859;55.132;-1.586;2023-05-31T10:54:18;4.57;;;2.40;;
71164;SDS011;58859;55.132;-1.586;2023-05-31T10:56:52;3.47;;;2.28;;
71164;SDS011;58859;55.132;-1.586;2023-05-31T10:59:18;5.40;;;2.70;;
71164;SDS011;58859;55.132;-1.586;2023-05-31T11:01:44;7.30;;;3.10;;
71164;SDS011;58859;55.132;-1.586;2023-05-31T11:04:19;5.20;;;3.25;;
71164;SDS011;58859;55.132;-1.586;2023-05-31T11:06:46;4.75;;;2.55;;
71164;SDS011;58859;55.132;-1.586;2023-05-31T11:09:12;4.93;;;3.03;;
71164;SDS011;58859;55.132;-1.586;2023-05-31T11:14:06;4.40;;;3.00;;
71164;SDS011;58859;55.132;-1.586;2023-05-31T11:17:11;7.30;;;3.42;;
71164;SDS011;58859;55.132;-1.586;2023-05-31T11:19:21;6.32;;;3.75;;
71164;SDS011;58859;55.132;-1.586;2023-05-31T11:21:55;6.20;;;3.50;;
71164;SDS011;58859;55.132;-1.586;2023-05-31T11:26:56;5.75;;;3.33;;
71164;SDS011;58859;55.132;-1.586;2023-05-31T11:29:23;6.53;;;3.70;;
71164;SDS011;58859;55.132;-1.586;2023-05-31T11:36:52;7.13;;;4.40;;
71164;SDS011;58859;55.132;-1.586;2023-05-31T11:39:18;6.43;;;3.70;;
71164;SDS011;58859;55.132;-1.586;2023-05-31T11:41:44;6.05;;;3.67;;
71164;SDS011;58859;55.132;-1.586;2023-05-31T11:44:12;6.60;;;3.17;;
71164;SDS011;58859;55.132;-1.586;2023-05-31T11:46:40;6.20;;;3.60;;
71164;SDS011;58859;55.132;-1.586;2023-05-31T11:49:09;4.50;;;3.60;;
71164;SDS011;58859;55.132;-1.586;2023-05-31T11:51:35;5.30;;;3.60;;
71164;SDS011;58859;55.132;-1.586;2023-05-31T11:54:02;4.70;;;3.65;;
71164;SDS011;58859;55.132;-1.586;2023-05-31T11:56:31;4.78;;;3.50;;
71164;SDS011;58859;55.132;-1.586;2023-05-31T11:59:01;7.15;;;3.25;;
71164;SDS011;58859;55.132;-1.586;2023-05-31T12:01:26;5.80;;;3.90;;
71164;SDS011;58859;55.132;-1.586;2023-05-31T12:03:58;5.57;;;3.57;;
71164;SDS011;58859;55.132;-1.586;2023-05-31T12:06:27;5.43;;;3.33;;
71164;SDS011;58859;55.132;-1.586;2023-05-31T12:08:53;7.32;;;3.45;;
71164;SDS011;58859;55.132;-1.586;2023-05-31T12:11:19;6.30;;;3.40;;
71164;SDS011;58859;55.132;-1.586;2023-05-31T12:13:46;5.85;;;2.95;;
71164;SDS011;58859;55.132;-1.586;2023-05-31T12:16:12;4.10;;;3.00;;
71164;SDS011;58859;55.132;-1.586;2023-05-31T12:18:38;4.97;;;2.70;;
71164;SDS011;58859;55.132;-1.586;2023-05-31T12:21:07;4.30;;;3.47;;
71164;SDS011;58859;55.132;-1.586;2023-05-31T12:23:50;7.30;;;3.17;;
71164;SDS011;58859;55.132;-1.586;2023-05-31T12:26:19;5.65;;;2.63;;
71164;SDS011;58859;55.132;-1.586;2023-05-31T12:28:46;4.03;;;2.38;;
71164;SDS011;58859;55.132;-1.586;2023-05-31T12:31:18;8.18;;;3.05;;
71164;SDS011;58859;55.132;-1.586;2023-05-31T12:33:50;6.28;;;3.08;;
71164;SDS011;58859;55.132;-1.586;2023-05-31T12:36:16;6.07;;;3.22;;
71164;SDS011;58859;55.132;-1.586;2023-05-31T12:38:42;4.13;;;3.13;;
71164;SDS011;58859;55.132;-1.586;2023-05-31T12:41:07;4.50;;;2.77;;
71164;SDS011;58859;55.132;-1.586;2023-05-31T12:43:33;5.37;;;3.43;;
71164;SDS011;58859;55.132;-1.586;2023-05-31T12:45:58;4.35;;;3.17;;
71164;SDS011;58859;55.132;-1.586;2023-05-31T12:48:23;6.73;;;3.87;;
71164;SDS011;58859;55.132;-1.586;2023-05-31T12:50:49;5.23;;;2.93;;
71164;SDS011;58859;55.132;-1.586;2023-05-31T12:53:15;5.53;;;2.78;;
71164;SDS011;58859;55.132;-1.586;2023-05-31T12:55:41;5.50;;;3.47;;
71164;SDS011;58859;55.132;-1.586;2023-05-31T12:58:06;7.18;;;2.97;;
71164;SDS011;58859;55.132;-1.586;2023-05-31T13:00:32;6.43;;;3.20;;
71164;SDS011;58859;55.132;-1.586;2023-05-31T13:02:58;5.88;;;2.92;;
71164;SDS011;58859;55.132;-1.586;2023-05-31T13:05:23;4.63;;;2.87;;
71164;SDS011;58859;55.132;-1.586;2023-05-31T13:07:50;4.78;;;3.05;;
71164;SDS011;58859;55.132;-1.586;2023-05-31T13:10:16;3.92;;;2.83;;
71164;SDS011;58859;55.132;-1.586;2023-05-31T13:12:42;5.45;;;3.20;;
71164;SDS011;58859;55.132;-1.586;2023-05-31T13:15:07;3.47;;;2.60;;
71164;SDS011;58859;55.132;-1.586;2023-05-31T13:17:33;4.30;;;2.70;;
71164;SDS011;58859;55.132;-1.586;2023-05-31T13:19:59;5.18;;;2.60;;
71164;SDS011;58859;55.132;-1.586;2023-05-31T13:22:24;5.87;;;2.93;;
71164;SDS011;58859;55.132;-1.586;2023-05-31T13:24:49;4.87;;;2.83;;
71164;SDS011;58859;55.132;-1.586;2023-05-31T13:27:15;4.97;;;2.80;;
71164;SDS011;58859;55.132;-1.586;2023-05-31T13:29:40;2.95;;;2.30;;
71164;SDS011;58859;55.132;-1.586;2023-05-31T13:32:06;4.20;;;2.70;;
71164;SDS011;58859;55.132;-1.586;2023-05-31T13:34:31;5.17;;;2.87;;
71164;SDS011;58859;55.132;-1.586;2023-05-31T13:36:57;6.53;;;3.25;;
71164;SDS011;58859;55.132;-1.586;2023-05-31T13:39:23;4.33;;;3.00;;
71164;SDS011;58859;55.132;-1.586;2023-05-31T13:41:48;4.80;;;2.73;;
71164;SDS011;58859;55.132;-1.586;2023-05-31T13:44:14;6.25;;;2.85;;
71164;SDS011;58859;55.132;-1.586;2023-05-31T13:46:40;3.87;;;2.50;;
71164;SDS011;58859;55.132;-1.586;2023-05-31T13:49:06;2.90;;;2.25;;
71164;SDS011;58859;55.132;-1.586;2023-05-31T13:51:32;7.53;;;3.40;;
71164;SDS011;58859;55.132;-1.586;2023-05-31T13:53:57;4.55;;;2.90;;
71164;SDS011;58859;55.132;-1.586;2023-05-31T13:56:23;6.37;;;3.40;;
71164;SDS011;58859;55.132;-1.586;2023-05-31T13:58:48;11.37;;;4.30;;
71164;SDS011;58859;55.132;-1.586;2023-05-31T14:01:13;7.33;;;3.67;;
71164;SDS011;58859;55.132;-1.586;2023-05-31T14:03:39;6.13;;;3.30;;
71164;SDS011;58859;55.132;-1.586;2023-05-31T14:06:05;5.97;;;4.07;;
71164;SDS011;58859;55.132;-1.586;2023-05-31T14:08:31;4.90;;;3.13;;
71164;SDS011;58859;55.132;-1.586;2023-05-31T14:10:57;7.45;;;2.97;;
71164;SDS011;58859;55.132;-1.586;2023-05-31T14:13:23;7.73;;;3.00;;
71164;SDS011;58859;55.132;-1.586;2023-05-31T14:15:48;5.13;;;3.27;;
71164;SDS011;58859;55.132;-1.586;2023-05-31T14:18:14;6.63;;;3.17;;
71164;SDS011;58859;55.132;-1.586;2023-05-31T14:20:39;5.15;;;3.30;;
71164;SDS011;58859;55.132;-1.586;2023-05-31T14:23:06;4.20;;;2.83;;
71164;SDS011;58859;55.132;-1.586;2023-05-31T14:25:31;5.20;;;3.20;;
71164;SDS011;58859;55.132;-1.586;2023-05-31T14:27:57;5.87;;;2.80;;
71164;SDS011;58859;55.132;-1.586;2023-05-31T14:30:24;4.43;;;3.08;;
71164;SDS011;58859;55.132;-1.586;2023-05-31T14:32:51;4.60;;;3.30;;
71164;SDS011;58859;55.132;-1.586;2023-05-31T14:35:17;3.90;;;2.90;;
71164;SDS011;58859;55.132;-1.586;2023-05-31T14:37:43;6.40;;;2.70;;
71164;SDS011;58859;55.132;-1.586;2023-05-31T14:40:08;7.57;;;2.87;;
71164;SDS011;58859;55.132;-1.586;2023-05-31T14:42:34;6.70;;;3.60;;
71164;SDS011;58859;55.132;-1.586;2023-05-31T14:45:00;6.57;;;2.97;;
71164;SDS011;58859;55.132;-1.586;2023-05-31T14:47:31;5.70;;;3.00;;
71164;SDS011;58859;55.132;-1.586;2023-05-31T14:49:58;4.82;;;3.35;;
71164;SDS011;58859;55.132;-1.586;2023-05-31T14:52:24;5.07;;;3.30;;